createdAt,value
2022-10-13T00:00:46.882Z,7.20
2022-10-13T00:03:47.241Z,6.57
2022-10-13T00:06:44.174Z,6.82
2022-10-13T00:09:41.021Z,6.95
2022-10-13T00:12:38.857Z,7.38
2022-10-13T00:15:41.305Z,7.10
2022-10-13T00:18:38.568Z,7.13
2022-10-13T00:21:35.416Z,7.22
2022-10-13T00:24:32.354Z,8.88
2022-10-13T00:27:29.372Z,7.20
2022-10-13T00:30:26.217Z,7.35
2022-10-13T00:33:23.143Z,7.20
2022-10-13T00:36:22.505Z,7.05
2022-10-13T00:39:19.338Z,8.77
2022-10-13T00:42:16.540Z,7.00
2022-10-13T00:45:30.173Z,7.60
2022-10-13T00:48:30.544Z,9.02
2022-10-13T00:51:32.337Z,7.93
2022-10-13T00:54:29.789Z,7.90
2022-10-13T00:57:26.915Z,7.57
2022-10-13T01:00:24.409Z,7.53
2022-10-13T01:03:22.309Z,7.60
2022-10-13T01:06:23.389Z,8.27
2022-10-13T01:09:20.778Z,7.90
2022-10-13T01:12:46.517Z,8.27
2022-10-13T01:16:09.761Z,9.32
2022-10-13T01:20:37.546Z,9.05
2022-10-13T01:24:08.337Z,9.13
2022-10-13T01:27:23.422Z,8.73
2022-10-13T01:30:22.642Z,10.55
2022-10-13T01:33:46.404Z,10.55
2022-10-13T01:37:34.680Z,11.18
2022-10-13T01:41:10.762Z,10.90
2022-10-13T01:44:36.249Z,11.70
2022-10-13T01:47:36.548Z,11.82
2022-10-13T01:50:54.056Z,11.25
2022-10-13T01:53:52.081Z,12.77
2022-10-13T01:56:56.448Z,13.02
2022-10-13T01:59:53.413Z,12.82
2022-10-13T02:03:21.758Z,12.95
2022-10-13T02:06:49.107Z,11.63
2022-10-13T02:09:57.895Z,13.65
2022-10-13T02:13:05.003Z,13.43
2022-10-13T02:16:02.572Z,13.27
2022-10-13T02:19:02.287Z,13.05
2022-10-13T02:21:59.325Z,13.82
2022-10-13T02:24:56.285Z,12.98
2022-10-13T02:27:53.864Z,10.75
2022-10-13T02:30:51.071Z,15.40
2022-10-13T02:33:47.936Z,14.23
2022-10-13T02:36:44.797Z,16.15
2022-10-13T02:39:41.881Z,15.85
2022-10-13T02:42:39.039Z,17.40
2022-10-13T02:45:35.906Z,13.63
2022-10-13T02:48:32.765Z,20.38
2022-10-13T02:51:29.625Z,14.23
2022-10-13T02:54:26.489Z,16.67
2022-10-13T02:57:23.438Z,18.40
2022-10-13T03:00:20.454Z,20.70
2022-10-13T03:03:17.333Z,21.40
2022-10-13T03:06:14.164Z,20.50
2022-10-13T03:09:11.756Z,21.45
2022-10-13T03:12:08.892Z,20.38
2022-10-13T03:15:06.422Z,23.55
2022-10-13T03:18:03.302Z,22.60
2022-10-13T03:21:03.745Z,26.10
2022-10-13T03:24:00.595Z,26.60
2022-10-13T03:26:57.447Z,27.40
2022-10-13T03:29:54.318Z,26.80
2022-10-13T03:32:51.235Z,25.48
2022-10-13T03:35:48.047Z,27.75
2022-10-13T03:38:45.119Z,25.75
2022-10-13T03:41:42.948Z,28.42
2022-10-13T03:44:39.799Z,28.30
2022-10-13T03:47:37.307Z,27.33
2022-10-13T03:50:34.169Z,27.65
2022-10-13T03:53:31.019Z,26.55
2022-10-13T03:56:28.607Z,28.02
2022-10-13T03:59:25.701Z,25.50
2022-10-13T04:02:23.604Z,28.17
2022-10-13T04:05:20.450Z,26.30
2022-10-13T04:08:18.429Z,26.65
2022-10-13T04:11:16.574Z,24.55
2022-10-13T04:14:13.433Z,26.33
2022-10-13T04:17:10.306Z,30.02
2022-10-13T04:20:08.253Z,28.75
2022-10-13T04:23:05.453Z,27.40
2022-10-13T04:26:02.641Z,25.67
2022-10-13T04:29:01.872Z,29.45
2022-10-13T04:32:00.154Z,30.70
2022-10-13T04:34:57.002Z,27.92
2022-10-13T04:37:54.191Z,29.67
2022-10-13T04:40:51.197Z,29.42
2022-10-13T04:43:50.637Z,27.15
2022-10-13T04:46:47.513Z,26.42
2022-10-13T04:49:44.364Z,27.40
2022-10-13T04:52:41.249Z,26.73
2022-10-13T04:55:38.108Z,26.52
2022-10-13T04:58:36.883Z,25.92
2022-10-13T05:01:35.847Z,25.58
2022-10-13T05:04:32.726Z,27.80
2022-10-13T05:07:31.795Z,27.73
2022-10-13T05:10:32.578Z,29.10
2022-10-13T05:13:31.558Z,27.45
2022-10-13T05:16:29.324Z,27.75
2022-10-13T05:19:26.258Z,26.60
2022-10-13T05:22:23.199Z,27.65
2022-10-13T05:25:20.441Z,27.92
2022-10-13T05:28:17.317Z,25.45
2022-10-13T05:31:24.028Z,28.23
2022-10-13T05:34:21.341Z,28.35
2022-10-13T05:37:18.411Z,29.48
2022-10-13T05:40:15.465Z,29.10
2022-10-13T05:43:12.308Z,29.80
2022-10-13T05:46:09.909Z,32.40
2022-10-13T05:49:06.807Z,29.17
2022-10-13T05:52:07.030Z,28.80
2022-10-13T05:55:09.080Z,27.38
2022-10-13T05:58:06.303Z,30.08
2022-10-13T06:01:08.295Z,28.23
2022-10-13T06:04:11.141Z,28.08
2022-10-13T06:07:09.912Z,26.08
2022-10-13T06:10:07.186Z,27.00
2022-10-13T06:13:04.121Z,26.77
2022-10-13T06:16:01.514Z,27.45
2022-10-13T06:18:58.367Z,30.02
2022-10-13T06:21:56.037Z,28.85
2022-10-13T06:24:54.031Z,35.50
2022-10-13T06:27:50.967Z,29.88
2022-10-13T06:30:54.006Z,27.60
2022-10-13T06:33:50.906Z,27.55
2022-10-13T06:36:47.756Z,28.95
2022-10-13T06:39:44.639Z,27.40
2022-10-13T06:42:41.527Z,28.27
2022-10-13T06:45:38.468Z,26.42
2022-10-13T06:48:35.646Z,27.17
2022-10-13T06:51:32.609Z,27.50
2022-10-13T06:54:29.516Z,26.13
2022-10-13T06:57:26.381Z,27.75
2022-10-13T07:00:23.375Z,28.00
2022-10-13T07:03:20.854Z,26.30
2022-10-13T07:06:18.896Z,26.80
2022-10-13T07:09:15.779Z,25.00
2022-10-13T07:12:14.417Z,25.63
2022-10-13T07:15:11.467Z,26.77
2022-10-13T07:18:08.803Z,25.13
2022-10-13T07:21:06.761Z,28.40
2022-10-13T07:24:04.128Z,27.85
2022-10-13T07:27:06.714Z,26.52
2022-10-13T07:30:06.080Z,28.30
2022-10-13T07:33:03.096Z,26.85
2022-10-13T07:36:00.094Z,25.20
2022-10-13T07:38:57.003Z,26.85
2022-10-13T07:41:53.852Z,24.58
2022-10-13T07:44:50.817Z,26.67
2022-10-13T07:47:47.689Z,25.70
2022-10-13T07:50:44.611Z,23.10
2022-10-13T07:53:42.905Z,22.85
2022-10-13T07:56:39.845Z,23.67
2022-10-13T07:59:37.037Z,21.05
2022-10-13T08:02:34.883Z,19.40
2022-10-13T08:05:31.794Z,20.92
2022-10-13T08:08:29.503Z,23.88
2022-10-13T08:11:27.359Z,22.00
2022-10-13T08:14:24.322Z,22.95
2022-10-13T08:17:21.888Z,23.42
2022-10-13T08:20:19.114Z,23.13
2022-10-13T08:23:16.015Z,21.73
2022-10-13T08:26:27.180Z,20.45
2022-10-13T08:29:24.692Z,20.45
2022-10-13T08:32:22.984Z,21.52
2022-10-13T08:35:19.845Z,22.80
2022-10-13T08:38:17.021Z,18.77
2022-10-13T08:41:30.190Z,19.35
2022-10-13T08:48:09.892Z,17.98
2022-10-13T08:51:07.892Z,20.08
2022-10-13T08:54:05.803Z,20.75
2022-10-13T08:57:05.095Z,20.27
2022-10-13T09:00:03.210Z,19.90
2022-10-13T09:03:29.448Z,21.45
2022-10-13T09:06:45.181Z,22.20
2022-10-13T09:09:42.290Z,20.60
2022-10-13T09:12:39.157Z,23.67
2022-10-13T09:15:50.268Z,20.45
2022-10-13T09:18:47.157Z,19.30
2022-10-13T09:21:44.336Z,21.88
2022-10-13T09:24:46.137Z,22.65
2022-10-13T09:27:51.865Z,21.25
2022-10-13T09:31:00.171Z,22.48
2022-10-13T09:34:12.172Z,22.15
2022-10-13T09:37:24.578Z,19.05
2022-10-13T09:40:22.237Z,21.60
2022-10-13T09:43:30.198Z,21.25
2022-10-13T09:46:58.664Z,18.70
2022-10-13T09:50:16.207Z,20.08
2022-10-13T09:53:26.556Z,19.10
2022-10-13T09:56:56.642Z,20.70
2022-10-13T10:00:04.949Z,18.77
2022-10-13T10:03:32.202Z,22.63
2022-10-13T10:06:29.045Z,19.98
2022-10-13T10:09:47.772Z,20.58
2022-10-13T10:12:45.201Z,19.02
2022-10-13T10:16:03.539Z,22.08
2022-10-13T10:19:26.862Z,19.90
2022-10-13T10:22:37.511Z,23.67
2022-10-13T10:25:42.937Z,20.45
2022-10-13T10:29:06.338Z,19.95
2022-10-13T10:32:33.487Z,19.13
2022-10-13T10:36:16.780Z,20.13
2022-10-13T10:39:57.390Z,18.52
2022-10-13T10:43:15.409Z,18.15
2022-10-13T10:46:27.948Z,18.10
2022-10-13T10:49:35.298Z,16.83
2022-10-13T10:53:04.345Z,16.95
2022-10-13T10:56:15.935Z,16.60
2022-10-13T10:59:50.732Z,16.40
2022-10-13T11:03:43.279Z,17.98
2022-10-13T11:06:40.175Z,18.20
2022-10-13T11:09:57.319Z,17.55
2022-10-13T11:12:55.201Z,17.92
2022-10-13T11:15:52.771Z,15.93
2022-10-13T11:18:59.171Z,17.77
2022-10-13T11:21:58.900Z,16.40
2022-10-13T11:25:22.636Z,16.70
2022-10-13T11:28:22.344Z,15.43
2022-10-13T11:31:46.676Z,16.10
2022-10-13T11:35:01.420Z,15.50
2022-10-13T11:38:07.185Z,15.55
2022-10-13T11:41:18.909Z,14.95
2022-10-13T11:44:42.031Z,18.27
2022-10-13T11:48:21.837Z,16.40
2022-10-13T11:51:43.363Z,16.17
2022-10-13T11:54:51.740Z,16.38
2022-10-13T11:57:48.575Z,15.52
2022-10-13T12:01:06.839Z,15.27
2022-10-13T12:04:15.190Z,16.85
2022-10-13T12:07:15.488Z,14.57
2022-10-13T12:10:39.203Z,14.77
2022-10-13T12:13:37.326Z,15.13
2022-10-13T12:16:34.332Z,13.95
2022-10-13T12:19:32.299Z,14.63
2022-10-13T12:22:29.613Z,14.45
2022-10-13T12:25:30.315Z,16.50
2022-10-13T12:31:42.824Z,15.07
2022-10-13T12:34:39.699Z,15.63
2022-10-13T12:37:37.314Z,15.85
2022-10-13T12:40:34.796Z,16.25
2022-10-13T12:43:31.704Z,16.02
2022-10-13T12:46:46.953Z,16.77
2022-10-13T12:49:43.793Z,16.90
2022-10-13T12:52:40.685Z,16.90
2022-10-13T12:55:58.522Z,17.27
2022-10-13T12:58:56.490Z,17.95
2022-10-13T13:02:02.667Z,21.52
2022-10-13T13:04:59.885Z,27.58
2022-10-13T13:07:57.758Z,17.67
2022-10-13T13:11:00.539Z,21.25
2022-10-13T13:14:49.559Z,18.45
2022-10-13T13:17:57.938Z,16.88
2022-10-13T13:20:56.217Z,16.98
2022-10-13T13:23:54.182Z,17.52
2022-10-13T13:26:51.613Z,17.77
2022-10-13T13:29:48.603Z,18.10
2022-10-13T13:32:45.450Z,16.80
2022-10-13T13:35:42.307Z,17.58
2022-10-13T13:38:39.180Z,17.00
2022-10-13T13:41:35.992Z,18.27
2022-10-13T13:44:32.831Z,17.42
2022-10-13T13:47:29.778Z,16.48
2022-10-13T13:50:35.171Z,15.55
2022-10-13T13:53:32.026Z,16.05
2022-10-13T13:56:28.892Z,15.95
2022-10-13T13:59:25.807Z,16.75
2022-10-13T14:02:22.717Z,16.55
2022-10-13T14:05:19.571Z,15.18
2022-10-13T14:08:16.421Z,15.75
2022-10-13T14:11:13.369Z,16.65
2022-10-13T14:14:10.238Z,17.13
2022-10-13T14:17:07.124Z,15.38
2022-10-13T14:20:04.784Z,16.52
2022-10-13T14:23:01.699Z,15.45
2022-10-13T14:25:58.564Z,16.52
2022-10-13T14:28:56.172Z,15.35
2022-10-13T14:31:53.217Z,17.77
2022-10-13T14:34:50.053Z,16.77
2022-10-13T14:37:46.877Z,15.77
2022-10-13T14:40:43.740Z,16.17
2022-10-13T14:43:40.635Z,15.90
2022-10-13T14:46:37.480Z,16.25
2022-10-13T14:49:34.313Z,16.40
2022-10-13T14:52:31.508Z,18.20
2022-10-13T14:55:28.404Z,23.77
2022-10-13T14:58:25.261Z,17.38
2022-10-13T15:01:22.388Z,15.70
2022-10-13T15:04:19.243Z,18.20
2022-10-13T15:07:16.624Z,15.63
2022-10-13T15:10:13.546Z,15.30
2022-10-13T15:13:10.476Z,16.25
2022-10-13T15:16:08.346Z,19.02
2022-10-13T15:19:05.853Z,20.95
2022-10-13T15:22:02.728Z,16.20
2022-10-13T15:24:59.590Z,16.83
2022-10-13T15:27:56.422Z,15.52
2022-10-13T15:30:53.683Z,16.25
2022-10-13T15:33:53.676Z,16.58
2022-10-13T15:36:50.500Z,17.42
2022-10-13T15:39:51.965Z,15.73
2022-10-13T15:42:53.000Z,13.95
2022-10-13T15:45:59.920Z,14.93
2022-10-13T15:48:56.933Z,15.57
2022-10-13T15:51:53.835Z,14.57
2022-10-13T15:54:51.507Z,14.38
2022-10-13T15:57:48.534Z,14.77
2022-10-13T16:00:45.746Z,13.77
2022-10-13T16:03:43.121Z,15.25
2022-10-13T16:06:39.958Z,15.77
2022-10-13T16:09:36.805Z,16.45
2022-10-13T16:12:33.718Z,15.82
2022-10-13T16:15:31.576Z,17.13
2022-10-13T16:18:34.144Z,21.58
2022-10-13T16:21:31.067Z,22.30
2022-10-13T16:24:29.253Z,17.88
2022-10-13T16:27:26.249Z,18.55
2022-10-13T16:30:23.148Z,17.65
2022-10-13T16:33:19.986Z,17.05
2022-10-13T16:36:19.291Z,17.73
2022-10-13T16:39:16.145Z,15.82
2022-10-13T16:42:13.122Z,13.85
2022-10-13T16:45:10.264Z,14.25
2022-10-13T16:48:07.127Z,13.45
2022-10-13T16:51:10.523Z,15.40
2022-10-13T16:54:07.467Z,14.43
2022-10-13T16:57:04.496Z,14.93
2022-10-13T17:00:01.362Z,14.88
2022-10-13T17:02:58.240Z,17.38
2022-10-13T17:05:55.871Z,19.98
2022-10-13T17:08:52.758Z,21.90
2022-10-13T17:11:49.643Z,22.17
2022-10-13T17:14:48.835Z,19.92
2022-10-13T17:17:46.143Z,21.90
2022-10-13T17:20:55.837Z,22.02
2022-10-13T17:23:56.067Z,20.73
2022-10-13T17:26:52.891Z,20.58
2022-10-13T17:29:54.222Z,23.38
2022-10-13T17:32:52.156Z,33.63
2022-10-13T17:35:48.989Z,25.48
2022-10-13T17:38:46.997Z,20.83
2022-10-13T17:41:43.913Z,22.13
2022-10-13T17:44:41.593Z,23.27
2022-10-13T17:47:38.441Z,23.00
2022-10-13T17:50:37.414Z,25.55
2022-10-13T17:53:35.674Z,23.52
2022-10-13T17:56:32.951Z,23.00
2022-10-13T17:59:30.112Z,25.50
2022-10-13T18:02:26.964Z,23.83
2022-10-13T18:05:23.887Z,24.10
2022-10-13T18:08:21.258Z,26.65
2022-10-13T18:11:22.015Z,24.60
2022-10-13T18:17:16.683Z,22.00
2022-10-13T18:20:13.611Z,24.17
2022-10-13T18:23:10.436Z,22.90
2022-10-13T18:26:15.231Z,30.33
2022-10-13T18:29:13.095Z,23.05
2022-10-13T18:32:09.943Z,23.15
2022-10-13T18:35:07.597Z,22.58
2022-10-13T18:38:04.429Z,22.77
2022-10-13T18:41:01.345Z,23.13
2022-10-13T18:43:58.274Z,22.17
2022-10-13T18:46:56.528Z,21.38
2022-10-13T18:49:53.404Z,22.45
2022-10-13T18:52:50.239Z,23.45
2022-10-13T18:55:47.300Z,24.42
2022-10-13T18:58:44.208Z,23.65
2022-10-13T19:01:41.079Z,23.90
2022-10-13T19:04:37.919Z,25.80
2022-10-13T19:07:38.918Z,24.48
2022-10-13T19:10:37.058Z,24.33
2022-10-13T19:13:33.905Z,24.40
2022-10-13T19:16:32.459Z,22.77
2022-10-13T19:19:29.299Z,22.85
2022-10-13T19:22:26.164Z,20.63
2022-10-13T19:25:23.117Z,22.00
2022-10-13T19:28:21.054Z,22.02
2022-10-13T19:31:22.054Z,20.48
2022-10-13T19:34:19.082Z,21.15
2022-10-13T19:37:16.803Z,21.90
2022-10-13T19:40:13.824Z,20.60
2022-10-13T19:43:10.744Z,23.05
2022-10-13T19:46:08.409Z,20.50
2022-10-13T19:49:05.613Z,22.80
2022-10-13T19:52:02.540Z,24.48
2022-10-13T19:55:00.872Z,23.52
2022-10-13T19:57:57.725Z,21.48
2022-10-13T20:00:54.663Z,23.83
2022-10-13T20:03:52.853Z,24.13
2022-10-13T20:06:51.140Z,23.13
2022-10-13T20:09:47.998Z,22.40
2022-10-13T20:12:45.100Z,20.73
2022-10-13T20:15:43.866Z,19.20
2022-10-13T20:18:41.926Z,22.08
2022-10-13T20:21:39.870Z,23.67
2022-10-13T20:24:36.725Z,24.38
2022-10-13T20:27:34.980Z,21.42
2022-10-13T20:30:32.653Z,22.30
2022-10-13T20:33:31.052Z,20.88
2022-10-13T20:36:28.652Z,23.27
2022-10-13T20:39:25.721Z,20.45
2022-10-13T20:42:22.920Z,21.98
2022-10-13T20:45:20.400Z,19.70
2022-10-13T20:48:17.249Z,21.98
2022-10-13T20:51:17.087Z,21.80
2022-10-13T20:54:15.330Z,22.30
2022-10-13T20:57:12.172Z,21.45
2022-10-13T21:00:10.113Z,19.05
2022-10-13T21:03:06.972Z,20.85
2022-10-13T21:06:05.515Z,20.77
2022-10-13T21:09:03.765Z,22.02
2022-10-13T21:12:00.652Z,22.70
2022-10-13T21:14:57.517Z,23.55
2022-10-13T21:17:54.756Z,23.42
2022-10-13T21:20:51.652Z,23.10
2022-10-13T21:23:58.582Z,20.05
2022-10-13T21:26:55.461Z,20.15
2022-10-13T21:29:52.292Z,21.23
2022-10-13T21:32:49.414Z,22.52
2022-10-13T21:35:46.229Z,24.60
2022-10-13T21:38:44.645Z,21.35
2022-10-13T21:41:41.572Z,21.88
2022-10-13T21:44:38.441Z,20.38
2022-10-13T21:47:36.626Z,18.52
2022-10-13T21:50:33.509Z,19.23
2022-10-13T21:53:30.358Z,19.30
2022-10-13T21:56:28.740Z,18.65
2022-10-13T21:59:25.603Z,20.73
2022-10-13T22:02:22.445Z,17.48
2022-10-13T22:05:19.288Z,16.20
2022-10-13T22:08:16.157Z,18.63
2022-10-13T22:11:13.965Z,18.67
2022-10-13T22:14:11.805Z,17.67
2022-10-13T22:17:08.682Z,16.40
2022-10-13T22:20:06.089Z,14.85
2022-10-13T22:23:03.077Z,16.80
2022-10-13T22:26:00.162Z,17.25
2022-10-13T22:29:02.529Z,16.55
2022-10-13T22:32:00.307Z,16.23
2022-10-13T22:34:57.144Z,16.45
2022-10-13T22:37:54.071Z,20.15
2022-10-13T22:40:50.991Z,18.23
2022-10-13T22:43:53.939Z,19.33
2022-10-13T22:46:50.787Z,19.25
2022-10-13T22:49:47.780Z,19.65
2022-10-13T22:52:44.998Z,22.02
2022-10-13T22:55:42.413Z,17.25
2022-10-13T22:58:39.421Z,20.33
2022-10-13T23:01:36.626Z,20.63
2022-10-13T23:04:33.509Z,21.02
2022-10-13T23:07:30.386Z,19.75
2022-10-13T23:10:27.220Z,19.05
2022-10-13T23:13:24.498Z,21.25
2022-10-13T23:16:24.878Z,19.83
2022-10-13T23:19:21.742Z,18.30
2022-10-13T23:22:18.578Z,19.02
2022-10-13T23:25:15.530Z,17.33
2022-10-13T23:28:12.388Z,17.60
2022-10-13T23:31:14.011Z,22.83
2022-10-13T23:34:10.913Z,19.92
2022-10-13T23:37:07.805Z,17.38
2022-10-13T23:40:05.416Z,15.52
2022-10-13T23:43:02.276Z,16.05
2022-10-13T23:45:59.519Z,16.45
2022-10-13T23:48:56.518Z,16.83
2022-10-13T23:51:53.400Z,17.90
2022-10-13T23:54:50.288Z,20.05
2022-10-13T23:57:47.130Z,17.05
